Have a Safe July 4th! 

Flight Track Log - Related Links

Times and Time Zones

All times are in EDT time to prevent confusion due to time zone crossing. See the N525MB flight status page for this flight to view local times or setup timezone preferences in your user account.

Time Position Orientation Groundspeed Altitude Reporting Facility
EDT Latitude Longitude Course Direction KTS MPH feet Rate Location/Type
Thu 08:42:44 PM 35.1869 -80.9511 198° South 211 243 1,500  Level Atlanta Center
Thu 08:43:45 PM 35.1250 -80.9761 198° South 238 274 3,600 2,156 Climbing Atlanta Center
Thu 08:44:52 PM 35.1042 -81.0558 252° West 240 276 6,100 2,016 Climbing Atlanta Center
Thu 08:45:53 PM 35.1125 -81.1417 277° West 264 304 7,900 2,031 Climbing Atlanta Center
Thu 08:47:02 PM 35.1758 -81.1828 332° Northwest 278 320 10,500 2,140 Climbing Atlanta Center
Thu 08:48:02 PM 35.2422 -81.1575 17° North 262 302 12,500 2,100 Climbing Atlanta Center
Thu 08:49:02 PM 35.3083 -81.1322 17° North 248 285 14,700 1,900 Climbing Atlanta Center
Thu 08:50:02 PM 35.3767 -81.1094 15° North 243 280 16,300 1,400 Climbing Atlanta Center
Thu 08:51:02 PM 35.4417 -81.1250 349° North 243 280 17,500 1,350 Climbing Atlanta Center
Thu 08:52:02 PM 35.5156 -81.1581 340° North 265 305 19,000 1,700 Climbing Atlanta Center
Thu 08:53:02 PM 35.5975 -81.1886 343° North 271 312 20,900 1,500 Climbing Atlanta Center
Thu 08:54:02 PM 35.6692 -81.2142 344° North 271 312 22,000 1,100 Climbing Atlanta Center
Thu 08:55:02 PM 35.7553 -81.2494 342° North 304 350 23,100 1,150 Climbing Atlanta Center
Thu 08:56:02 PM 35.8333 -81.2828 341° North 304 350 24,300 1,300 Climbing Atlanta Center
Thu 08:57:02 PM 35.9092 -81.3133 342° North 291 335 25,700 1,200 Climbing Atlanta Center
Thu 08:58:02 PM 35.9786 -81.3419 342° North 291 335 26,700 1,000 Climbing Atlanta Center
Thu 08:59:02 PM 36.0544 -81.3728 342° North 291 335 27,700 650 Climbing Atlanta Center
Thu 09:00:02 PM 36.1342 -81.4011 344° North 291 335 28,000 150 Climbing Atlanta Center
Thu 09:01:02 PM 36.2225 -81.4392 341° North 313 360 28,000  Level Atlanta Center
Thu 09:02:02 PM 36.3108 -81.4725 343° North 327 376 28,000  Level Atlanta Center
Thu 09:03:02 PM 36.4014 -81.5108 341° North 335 386 28,000  Level Atlanta Center
Thu 09:04:02 PM 36.4939 -81.5467 343° North 340 391 28,000  Level Atlanta Center
Thu 09:05:02 PM 36.5906 -81.5878 341° North 340 391 28,000  Level Atlanta Center
Thu 09:06:02 PM 36.6789 -81.6239 342° North 340 391 28,000  Level Atlanta Center
Thu 09:08:13 PM 36.8750 -81.7019 342° North 343 395 28,000  Level Indianapolis Center
Thu 09:09:15 PM 36.9661 -81.7383 342° North 344 396 28,000  Level Indianapolis Center
Thu 09:10:16 PM 37.0569 -81.7758 342° North 343 395 28,000  Level Indianapolis Center
Thu 09:11:18 PM 37.1481 -81.8139 342° North 344 396 28,000  Level Indianapolis Center
Thu 09:12:19 PM 37.2375 -81.8508 342° North 340 391 28,000  Level Indianapolis Center
Thu 09:13:21 PM 37.3444 -81.8956 342° North 345 397 28,000  Level Indianapolis Center
Thu 09:14:23 PM 37.4325 -81.9319 342° North 336 387 28,000  Level Indianapolis Center
Thu 09:15:24 PM 37.5264 -81.9703 342° North 347 399 28,000  Level Indianapolis Center
Thu 09:16:26 PM 37.6161 -82.0075 342° North 342 394 28,000  Level Indianapolis Center
Thu 09:17:28 PM 37.7058 -82.0447 342° North 340 391 28,000  Level Indianapolis Center
Thu 09:18:29 PM 37.7961 -82.0839 341° North 343 395 28,000  Level Indianapolis Center
Thu 09:19:31 PM 37.8994 -82.1267 342° North 342 394 28,000  Level Indianapolis Center
Thu 09:20:32 PM 37.9917 -82.1656 342° North 342 394 28,000  Level Indianapolis Center
Thu 09:21:34 PM 38.0819 -82.2039 342° North 342 394 28,000  Level Indianapolis Center
Thu 09:22:35 PM 38.1717 -82.2417 342° North 344 396 28,000 -422 Level Indianapolis Center
Thu 09:24:39 PM 38.3575 -82.3219 341° North 359 413 26,700 -681 Descending Indianapolis Center
Thu 09:25:40 PM 38.4553 -82.3625 342° North 365 420 25,900 -829 Descending Indianapolis Center
Thu 09:26:42 PM 38.5522 -82.4044 341° North 366 421 25,000 -829 Descending Indianapolis Center
Thu 09:27:43 PM 38.6478 -82.4447 342° North 362 417 24,200 -488 Descending Indianapolis Center
Thu 09:28:45 PM 38.7436 -82.4869 341° North 361 415 24,000 -537 Descending Indianapolis Center
Thu 09:29:46 PM 38.8567 -82.5361 341° North 357 411 23,100 -585 Descending Indianapolis Center
Thu 09:30:48 PM 38.9497 -82.5775 341° North 354 407 22,800 -293 Descending Indianapolis Center
Thu 09:31:49 PM 39.0436 -82.6183 341° North 355 409 22,500 -878 Descending Indianapolis Center
Thu 09:32:51 PM 39.1369 -82.6572 342° North 350 403 21,000 -1,805 Descending Indianapolis Center
Thu 09:33:52 PM 39.2331 -82.6997 341° North 338 389 18,800 -2,000 Descending Indianapolis Center
Thu 09:34:54 PM 39.3192 -82.7372 341° North 326 375 16,900 -1,902 Descending Indianapolis Center
Thu 09:35:55 PM 39.4061 -82.7764 341° North 328 377 14,900 -1,951 Descending Indianapolis Center
Thu 09:36:57 PM 39.4961 -82.7908 353° North 324 373 12,900 -1,902 Descending Indianapolis Center
Thu 09:37:58 PM 39.5819 -82.8008 355° North 311 358 11,000 -1,707 Descending Indianapolis Center
Thu 09:39:00 PM 39.6669 -82.8114 355° North 305 351 9,400 -1,512 Descending Indianapolis Center
Thu 09:40:01 PM 39.7503 -82.8203 355° North 299 344 7,900 -1,268 Descending Indianapolis Center
Thu 09:41:03 PM 39.8325 -82.8297 355° North 295 339 6,800 -1,073 Descending Indianapolis Center
Thu 09:42:04 PM 39.9089 -82.8428 353° North 278 320 5,700 -1,366 Descending Indianapolis Center
Thu 09:43:06 PM 39.9906 -82.8769 342° North 264 304 4,000 -1,561 Descending Indianapolis Center
Thu 09:44:07 PM 40.0550 -82.9081 340° North 255 293 2,500 -885 Descending Indianapolis Center
Thu 09:45:08 PM 40.0786 -82.9650 298° West 203 234 2,200 -439 Descending Indianapolis Center
Thu 09:46:10 PM 40.0803 -83.0225 272° West 173 199 1,600 -585 Descending Indianapolis Center
Thu 09:47:11 PM 40.0775 -83.0594 264° West 153 176 1,000 -590 Descending Indianapolis Center
Thu 09:49:00 PM 40.0798 -83.0732 283° West  Level Estimated

Login

Don't have an account? Register now (free) for customized features, flight alerts, and more!